Aérodrome :
LOGIN :

S'inscrire | Disclaimer

   EN    FR    IT 

 










Légende :    VFR   VFR Marginal   IFR   IFR Intensif   IFR Très Intensif
Visi : 
Plafond : 
>= 8 km
>= 3000ft
5 à 8 km
1000 à 3000 ft
1500m à 5 km
500 à 1000 ft
800 à 1500m
200 à 500 ft
< 800m
< 200 ft
Symboles :   Orages  Brouillard  Fortes neiges  Fortes précipitations  Vent > 20 kt
SIGMETs :   Divers  Orages  Givrage  Turbulence  Onde Orograph.  Cendres Volcan.







- Altitude de l'aérodrome : 70 ft
- Code IATA : LEI


LEAM - Almeria

DERNIER METAR :
  • 140800Z 00000KT 9999 FEW040 07/04 Q1023

METARs EXPIRÉS :
  • 140730Z 00000KT 9999 FEW040 06/03 Q1023
  • 140700Z 34004KT 320V030 9999 FEW040 07/03 Q1023
  • 140630Z 34005KT CAVOK 07/03 Q1023
  • 140600Z 34006KT CAVOK 07/04 Q1023
  • 140530Z VRB02KT CAVOK 08/04 Q1023

TAF TAF LEAM
Valide du 14 à 03h jusqu'au 15 à 03h UTC


140200Z 1403/1503 30006KT CAVOK TX15/1412Z TN06/1407Z
BECMG 1410/1412 22010KT
BECMG 1418/1420 VRB03KT
Pas de NOTAMs connus pour ce terrain.



MET'MAP, la Météo Aéronautique d'un coup d'oeil ! - Copyright ORBIFLY Décembre 2007 - Disclaimer

ORBIFLY MET'MAP TEAM :

Programmation & Développement : Alexandra Zaïnal
Conception & Développement : Baudouin d'Aumeries
Co-Programmation & Développement : Marc-Olivier Méhu
Soutien technique & logistique : Manuel Goepfert

Contact : metmap@orbifly.com




SOURCES & CREDITS :

   NOAA